Terminal Aerodrome Forecast
Issued by NWS

Home | Current Version | Previous Version | Text Only | Print | Product List | Glossary On
Versions: 1 2 3 4 5 6 7 8 9 10 11 12 13 14
000
FTUS45 KRIW 011700
TAFRKS
TAF
KRKS 011720Z 0118/0218 07007KT P6SM SCT250
     FM011900 06009KT P6SM SCT090
     FM020000 07009KT P6SM SCT090 BKN150
     FM020500 07006KT P6SM SCT120=

USA.gov is the U.S. government's official web portal to all federal, state and local government web resources and services.